Time;durP1;ratioP1;P1;durP2;ratioP2;P2;SDS_P1;SDS_P2;PMS_P1;PMS_P2;Temp;Humidity;BMP_temperature;BMP_pressure;BME280_temperature;BME280_humidity;BME280_pressure;Samples;Min_cycle;Max_cycle;Signal;HPM_P1;HPM_P2
2022/03/27 00:00:34;;;;;;;0.82;0.82;;;12.40;41.00;;;;;;5009999;28;20385;-74
2022/03/27 00:03:00;;;;;;;0.40;0.40;;;12.40;40.70;;;;;;5009773;28;20869;-73
2022/03/27 00:05:26;;;;;;;0.40;0.30;;;12.40;40.70;;;;;;5009421;28;20416;-74
2022/03/27 00:07:51;;;;;;;0.50;0.50;;;12.50;40.70;;;;;;5012007;28;20408;-74
2022/03/27 00:10:18;;;;;;;0.40;0.30;;;12.30;41.00;;;;;;4999676;28;20882;-74
2022/03/27 00:12:44;;;;;;;2.40;1.08;;;12.30;40.60;;;;;;4992118;28;20409;-74
2022/03/27 00:15:12;;;;;;;0.80;0.80;;;12.30;40.70;;;;;;4993540;28;20428;-75
2022/03/27 00:17:38;;;;;;;1.40;1.10;;;12.30;40.80;;;;;;4993798;28;20391;-74
2022/03/27 00:20:08;;;;;;;0.43;0.35;;;12.30;41.00;;;;;;4993604;28;20394;-74
2022/03/27 00:22:34;;;;;;;1.60;0.70;;;12.30;40.80;;;;;;4991843;28;21295;-74
2022/03/27 00:25:00;;;;;;;0.40;0.20;;;12.40;41.50;;;;;;4993620;28;20433;-74
2022/03/27 00:27:26;;;;;;;0.40;0.40;;;12.30;40.80;;;;;;4992795;28;20476;-74
2022/03/27 00:29:52;;;;;;;0.50;0.50;;;12.20;41.00;;;;;;4993679;28;20743;-74
2022/03/27 00:32:18;;;;;;;0.60;0.60;;;12.20;41.70;;;;;;4993547;28;20386;-74
2022/03/27 00:34:43;;;;;;;1.90;1.00;;;12.20;41.00;;;;;;4992756;28;20390;-74
2022/03/27 00:37:09;;;;;;;1.30;1.20;;;12.20;41.60;;;;;;4993458;28;20398;-74
2022/03/27 00:39:35;;;;;;;1.40;1.10;;;12.10;41.40;;;;;;4992923;28;20394;-74
2022/03/27 00:42:00;;;;;;;0.40;0.30;;;12.00;41.30;;;;;;4993525;28;20379;-74
2022/03/27 00:44:27;;;;;;;1.20;0.90;;;12.00;41.30;;;;;;4993214;28;20453;-74
2022/03/27 00:46:52;;;;;;;0.70;0.70;;;12.10;41.40;;;;;;4992319;28;20567;-74
2022/03/27 00:49:18;;;;;;;0.50;0.50;;;12.10;41.10;;;;;;4993197;28;20724;-74
2022/03/27 00:51:44;;;;;;;0.40;0.30;;;12.00;41.40;;;;;;4992414;28;20477;-74
2022/03/27 00:54:10;;;;;;;1.30;1.20;;;12.00;41.60;;;;;;4993385;28;20724;-74
2022/03/27 00:56:35;;;;;;;1.30;1.20;;;11.90;41.50;;;;;;4992775;28;20744;-74
2022/03/27 00:59:01;;;;;;;5.30;1.70;;;11.90;41.60;;;;;;4992227;28;20852;-74
2022/03/27 01:01:38;;;;;;;1.50;1.20;;;11.90;42.30;;;;;;4992524;28;20426;-74
2022/03/27 01:04:06;;;;;;;0.40;0.40;;;11.80;42.00;;;;;;4991824;28;20451;-74
2022/03/27 01:06:38;;;;;;;1.70;1.60;;;11.70;42.40;;;;;;4992790;28;20391;-74
2022/03/27 01:11:51;;;;;;;0.40;0.40;;;11.60;42.30;;;;;;5011606;28;20924;-73
2022/03/27 01:14:31;;;;;;;0.40;0.40;;;11.60;42.20;;;;;;5011784;28;20427;-74
2022/03/27 01:17:07;;;;;;;1.52;1.42;;;11.60;42.60;;;;;;5011238;28;20392;-74
2022/03/27 01:19:34;;;;;;;0.60;0.60;;;11.60;42.30;;;;;;5011560;28;20730;-74
2022/03/27 01:22:00;;;;;;;0.50;0.35;;;11.60;42.50;;;;;;5011867;28;20389;-74
2022/03/27 01:24:26;;;;;;;0.43;0.33;;;11.50;42.50;;;;;;5011252;28;20527;-74
2022/03/27 01:26:52;;;;;;;3.70;1.10;;;11.50;42.70;;;;;;5011932;28;20381;-74
2022/03/27 01:29:18;;;;;;;2.50;0.80;;;11.40;42.90;;;;;;5011271;28;20723;-73
2022/03/27 01:31:44;;;;;;;0.40;0.25;;;11.40;43.70;;;;;;5011959;28;20496;-72
2022/03/27 01:34:10;;;;;;;0.40;0.30;;;11.30;43.30;;;;;;5011183;28;20380;-72
2022/03/27 01:36:36;;;;;;;0.80;0.80;;;11.20;43.60;;;;;;5010522;28;20391;-72
2022/03/27 01:39:08;;;;;;;0.40;0.20;;;11.20;43.70;;;;;;5010565;28;20672;-73
2022/03/27 01:41:35;;;;;;;0.40;0.30;;;11.10;43.60;;;;;;5011149;28;20376;-73
2022/03/27 01:44:00;;;;;;;0.40;0.40;;;11.10;44.90;;;;;;5011792;28;20408;-73
2022/03/27 01:46:31;;;;;;;1.50;1.40;;;11.00;43.80;;;;;;5010846;28;20381;-73
2022/03/27 01:49:01;;;;;;;0.50;0.50;;;11.10;43.90;;;;;;5011734;28;20381;-73
2022/03/27 01:51:28;;;;;;;1.60;1.30;;;11.10;44.50;;;;;;5010539;28;20443;-73
2022/03/27 01:53:54;;;;;;;0.40;0.30;;;11.10;44.00;;;;;;5011892;28;20467;-73
2022/03/27 01:56:19;;;;;;;0.50;0.50;;;11.10;43.90;;;;;;5011290;28;20502;-74
2022/03/27 01:58:45;;;;;;;0.50;0.50;;;11.20;43.60;;;;;;5011193;28;20385;-73
2022/03/27 02:01:11;;;;;;;0.45;0.45;;;11.00;43.30;;;;;;5011476;28;20757;-73
2022/03/27 02:03:37;;;;;;;0.40;0.25;;;11.10;43.90;;;;;;5010998;28;20381;-73
2022/03/27 02:06:06;;;;;;;0.55;0.55;;;11.00;43.70;;;;;;5011406;28;20408;-73
2022/03/27 02:08:35;;;;;;;0.40;0.20;;;11.00;43.90;;;;;;5010935;28;20889;-74
2022/03/27 02:11:02;;;;;;;0.50;0.50;;;11.00;43.80;;;;;;4993220;28;20419;-74
2022/03/27 02:13:29;;;;;;;0.40;0.30;;;11.00;44.40;;;;;;4991598;28;20390;-73
2022/03/27 02:15:57;;;;;;;1.15;0.98;;;11.00;44.10;;;;;;5002842;28;20452;-73
2022/03/27 02:18:25;;;;;;;0.90;0.90;;;10.90;43.80;;;;;;5011084;28;20471;-74
2022/03/27 02:20:50;;;;;;;1.70;1.20;;;10.90;44.80;;;;;;5010377;28;20381;-74
2022/03/27 02:23:16;;;;;;;0.40;0.20;;;10.80;45.50;;;;;;5010983;28;20381;-73
2022/03/27 02:25:42;;;;;;;1.90;1.10;;;10.80;44.70;;;;;;5010619;28;20416;-75
2022/03/27 02:28:08;;;;;;;0.80;0.60;;;10.60;46.10;;;;;;5010708;28;20431;-73
2022/03/27 02:30:34;;;;;;;1.40;0.90;;;10.60;46.60;;;;;;5010493;28;20378;-73
2022/03/27 02:33:00;;;;;;;0.40;0.30;;;10.50;47.20;;;;;;5010151;28;20388;-74
2022/03/27 02:35:26;;;;;;;1.20;1.10;;;10.30;48.10;;;;;;5009478;28;20407;-73
2022/03/27 02:37:52;;;;;;;0.60;0.60;;;10.20;48.60;;;;;;5010494;28;20443;-75
2022/03/27 02:40:18;;;;;;;0.50;0.50;;;10.20;48.10;;;;;;5010150;28;20411;-73
2022/03/27 02:42:43;;;;;;;0.40;0.30;;;10.00;48.80;;;;;;5011207;28;20574;-73
2022/03/27 02:45:09;;;;;;;0.70;0.57;;;9.90;50.40;;;;;;5010596;28;20837;-73
2022/03/27 02:47:35;;;;;;;0.50;0.50;;;9.80;50.20;;;;;;5010872;28;20780;-73
2022/03/27 02:50:04;;;;;;;0.40;0.20;;;9.90;50.30;;;;;;5010415;28;20381;-75
2022/03/27 02:52:30;;;;;;;0.40;0.23;;;9.90;49.60;;;;;;5010451;28;20856;-73
2022/03/27 02:54:56;;;;;;;1.00;0.70;;;9.80;50.40;;;;;;5010698;28;20397;-73
2022/03/27 02:57:22;;;;;;;1.70;1.60;;;9.70;52.50;;;;;;5009834;28;20442;-73
2022/03/27 02:59:48;;;;;;;0.65;0.65;;;9.60;53.00;;;;;;5010853;28;20408;-73
2022/03/27 03:02:14;;;;;;;0.40;0.20;;;9.50;52.50;;;;;;5009688;28;20417;-73
2022/03/27 03:04:40;;;;;;;3.95;3.20;;;9.50;52.10;;;;;;5009998;28;20479;-73
2022/03/27 03:07:06;;;;;;;1.20;0.90;;;9.50;51.60;;;;;;5010332;28;20411;-74
2022/03/27 03:09:32;;;;;;;1.10;1.10;;;9.60;51.00;;;;;;5009248;28;20419;-73
2022/03/27 03:11:58;;;;;;;0.40;0.33;;;9.50;51.50;;;;;;5010128;28;20474;-74
2022/03/27 03:14:23;;;;;;;0.40;0.20;;;9.30;52.80;;;;;;5009785;28;20419;-74
2022/03/27 03:16:50;;;;;;;0.60;0.60;;;9.30;52.60;;;;;;5010416;28;20732;-73
2022/03/27 03:19:16;;;;;;;0.40;0.30;;;9.20;53.00;;;;;;5010423;28;20420;-73
2022/03/27 03:21:42;;;;;;;1.30;1.20;;;9.20;53.10;;;;;;5009821;28;20531;-73
2022/03/27 03:24:09;;;;;;;0.70;0.60;;;9.20;53.80;;;;;;5010250;28;20385;-73
2022/03/27 03:26:35;;;;;;;0.57;0.57;;;9.10;54.00;;;;;;5009544;28;20399;-74
2022/03/27 03:29:00;;;;;;;0.90;0.70;;;9.10;54.40;;;;;;5008488;28;20722;-74
2022/03/27 03:31:26;;;;;;;0.80;0.80;;;8.90;54.60;;;;;;5010044;28;20393;-74
2022/03/27 03:33:52;;;;;;;4.70;1.30;;;8.80;54.60;;;;;;5009669;28;20396;-74
2022/03/27 03:36:18;;;;;;;0.40;0.30;;;8.80;55.50;;;;;;5010803;28;20389;-74
2022/03/27 03:38:44;;;;;;;0.40;0.30;;;8.90;54.90;;;;;;5008512;28;20850;-74
2022/03/27 03:41:09;;;;;;;0.40;0.30;;;8.80;55.10;;;;;;5010892;28;20488;-74
2022/03/27 03:43:36;;;;;;;0.40;0.20;;;8.80;55.00;;;;;;5014241;28;20381;-73
2022/03/27 03:46:03;;;;;;;2.80;1.40;;;8.90;55.10;;;;;;5013718;28;20388;-74
2022/03/27 03:48:29;;;;;;;0.60;0.60;;;8.80;55.20;;;;;;5014458;28;20392;-74
2022/03/27 03:50:55;;;;;;;2.50;2.30;;;8.70;55.80;;;;;;5012378;28;20392;-74
2022/03/27 03:53:21;;;;;;;1.60;1.50;;;8.60;57.20;;;;;;5014484;28;20385;-74
2022/03/27 03:55:47;;;;;;;0.80;0.80;;;8.40;58.00;;;;;;5014284;28;20408;-74
2022/03/27 03:58:14;;;;;;;4.10;1.00;;;8.10;60.30;;;;;;5013222;28;20385;-74
2022/03/27 04:00:41;;;;;;;0.40;0.30;;;7.90;62.60;;;;;;5014306;28;20409;-74
2022/03/27 04:03:08;;;;;;;0.82;0.82;;;7.90;64.40;;;;;;5011853;28;20400;-74
2022/03/27 04:05:34;;;;;;;0.60;0.60;;;7.80;63.10;;;;;;5013928;28;20388;-74
2022/03/27 04:08:00;;;;;;;0.40;0.40;;;7.60;64.90;;;;;;5013180;28;20397;-76
2022/03/27 04:10:26;;;;;;;0.40;0.30;;;7.60;67.30;;;;;;5011446;28;20496;-74
2022/03/27 04:12:51;;;;;;;2.20;1.10;;;7.40;68.10;;;;;;5012298;28;20711;-73
2022/03/27 04:15:18;;;;;;;1.92;1.50;;;7.40;69.70;;;;;;5011211;28;20415;-74
2022/03/27 04:17:44;;;;;;;1.30;0.80;;;7.40;68.30;;;;;;5013749;28;20428;-74
2022/03/27 04:20:11;;;;;;;1.80;1.00;;;7.30;69.40;;;;;;5012735;28;20427;-74
2022/03/27 04:22:37;;;;;;;0.40;0.30;;;7.10;70.80;;;;;;5013889;28;20381;-74
2022/03/27 04:25:03;;;;;;;0.90;0.90;;;7.20;73.30;;;;;;5012459;28;20412;-74
2022/03/27 04:27:28;;;;;;;0.50;0.50;;;7.20;70.70;;;;;;5011637;28;20996;-74
2022/03/27 04:29:54;;;;;;;0.40;0.30;;;7.10;73.40;;;;;;5013860;28;20397;-74
2022/03/27 04:32:20;;;;;;;0.40;0.30;;;7.00;74.00;;;;;;5012968;28;20392;-74
2022/03/27 04:34:50;;;;;;;0.98;0.68;;;7.20;72.50;;;;;;5013437;28;20571;-74
2022/03/27 04:37:16;;;;;;;1.65;1.55;;;7.30;72.90;;;;;;5013012;28;20467;-75
2022/03/27 04:39:42;;;;;;;2.00;1.80;;;7.20;74.00;;;;;;5012890;28;20397;-74
2022/03/27 04:42:09;;;;;;;0.70;0.70;;;7.00;75.20;;;;;;5012369;28;20385;-74
2022/03/27 04:44:35;;;;;;;0.40;0.30;;;6.90;76.00;;;;;;5012609;28;20411;-74
2022/03/27 04:47:01;;;;;;;0.40;0.20;;;6.80;76.30;;;;;;5013401;28;20385;-74
2022/03/27 04:49:26;;;;;;;0.40;0.30;;;6.90;78.90;;;;;;5012277;28;20737;-73
2022/03/27 04:51:52;;;;;;;1.40;1.10;;;6.80;81.20;;;;;;5012968;28;20404;-74
2022/03/27 04:54:18;;;;;;;0.90;0.60;;;6.70;80.40;;;;;;5010915;28;20417;-74
2022/03/27 04:56:44;;;;;;;0.50;0.50;;;6.70;81.20;;;;;;5012736;28;20393;-74
2022/03/27 04:59:10;;;;;;;0.70;0.70;;;6.50;81.70;;;;;;5013328;28;20381;-73
2022/03/27 05:01:36;;;;;;;0.70;0.70;;;6.50;82.40;;;;;;5010919;28;20392;-72
2022/03/27 05:04:02;;;;;;;0.40;0.20;;;6.50;84.00;;;;;;5012814;28;20881;-72
2022/03/27 05:06:29;;;;;;;0.40;0.40;;;6.40;85.20;;;;;;5012969;28;20520;-73
2022/03/27 05:08:58;;;;;;;0.60;0.60;;;6.40;85.00;;;;;;5011689;28;20957;-73
2022/03/27 05:11:28;;;;;;;0.40;0.20;;;6.40;84.60;;;;;;5012617;28;20463;-72
2022/03/27 05:13:54;;;;;;;0.40;0.20;;;6.60;84.80;;;;;;5010638;28;20923;-73
2022/03/27 05:16:20;;;;;;;0.80;0.70;;;6.40;86.70;;;;;;5012581;28;20488;-73
2022/03/27 05:18:46;;;;;;;0.40;0.30;;;6.40;87.30;;;;;;5011881;28;20885;-73
2022/03/27 05:21:11;;;;;;;0.40;0.20;;;6.40;86.10;;;;;;5012691;28;20850;-73
2022/03/27 05:23:37;;;;;;;0.40;0.30;;;6.30;86.60;;;;;;5012307;28;20393;-73
2022/03/27 05:26:03;;;;;;;3.50;1.15;;;6.20;90.10;;;;;;5011142;28;20405;-73
2022/03/27 05:28:30;;;;;;;0.63;0.50;;;6.20;89.60;;;;;;5012533;28;20388;-73
2022/03/27 05:30:56;;;;;;;0.52;0.52;;;6.30;90.10;;;;;;5010464;28;20746;-73
2022/03/27 05:33:22;;;;;;;0.40;0.20;;;6.30;90.00;;;;;;5012385;28;20389;-73
2022/03/27 05:35:48;;;;;;;0.50;0.50;;;6.30;89.70;;;;;;5012367;28;20427;-73
2022/03/27 05:38:14;;;;;;;0.40;0.20;;;6.10;90.70;;;;;;5011586;28;20400;-72
2022/03/27 05:40:40;;;;;;;0.40;0.20;;;6.10;90.70;;;;;;5012371;28;20393;-72
2022/03/27 05:43:07;;;;;;;0.40;0.32;;;6.20;91.20;;;;;;5011565;28;20800;-73
2022/03/27 05:45:35;;;;;;;0.40;0.30;;;6.00;91.40;;;;;;5012431;28;20397;-72
2022/03/27 05:48:01;;;;;;;1.00;0.90;;;6.10;91.60;;;;;;5011490;28;20397;-74
2022/03/27 05:50:27;;;;;;;1.60;0.40;;;6.20;91.70;;;;;;5012091;28;20396;-72
2022/03/27 05:52:53;;;;;;;0.47;0.47;;;6.20;91.60;;;;;;5012244;28;20745;-72
2022/03/27 05:55:20;;;;;;;0.60;0.60;;;6.20;92.20;;;;;;5011186;28;20445;-73
2022/03/27 05:57:46;;;;;;;0.90;0.80;;;6.20;92.50;;;;;;5012161;28;20435;-73
2022/03/27 06:00:16;;;;;;;0.40;0.28;;;6.20;94.00;;;;;;5011067;28;20397;-74
2022/03/27 06:02:42;;;;;;;0.40;0.20;;;6.20;92.30;;;;;;5012064;28;20812;-73
2022/03/27 06:05:08;;;;;;;0.40;0.28;;;6.30;93.30;;;;;;5010235;28;20940;-75
2022/03/27 06:07:48;;;;;;;0.40;0.20;;;6.20;93.40;;;;;;5011251;28;20396;-73
2022/03/27 06:10:15;;;;;;;0.40;0.20;;;6.30;93.30;;;;;;4999563;28;20981;-74
2022/03/27 06:12:43;;;;;;;0.70;0.70;;;6.20;93.40;;;;;;4991901;28;20453;-73
2022/03/27 06:15:09;;;;;;;0.40;0.20;;;6.30;94.30;;;;;;4993065;28;20418;-73
2022/03/27 06:17:46;;;;;;;0.40;0.22;;;6.40;93.80;;;;;;5009571;28;20404;-73
2022/03/27 06:20:24;;;;;;;0.90;0.90;;;6.40;93.00;;;;;;4994531;28;20419;-72
2022/03/27 06:22:50;;;;;;;0.40;0.40;;;6.50;93.50;;;;;;5011474;28;20507;-72
2022/03/27 06:25:18;;;;;;;0.40;0.20;;;6.50;93.10;;;;;;5011628;28;20472;-72
2022/03/27 06:27:45;;;;;;;1.00;1.00;;;6.50;93.30;;;;;;5009686;28;20458;-73
2022/03/27 06:30:13;;;;;;;0.40;0.20;;;6.60;93.40;;;;;;5011808;28;20463;-73
2022/03/27 06:32:39;;;;;;;0.40;0.40;;;6.60;93.90;;;;;;5010812;28;20389;-73
2022/03/27 06:35:06;;;;;;;0.40;0.20;;;6.60;93.30;;;;;;5011688;28;20408;-74
2022/03/27 06:37:32;;;;;;;13.00;2.20;;;6.90;93.80;;;;;;5010889;28;20959;-73
2022/03/27 06:39:59;;;;;;;0.50;0.50;;;7.00;92.10;;;;;;5011314;28;20381;-72
2022/03/27 06:42:26;;;;;;;0.50;0.50;;;7.20;92.10;;;;;;5011311;28;20400;-73
2022/03/27 06:44:53;;;;;;;0.40;0.40;;;7.30;85.80;;;;;;4992880;28;20400;-72
2022/03/27 06:47:19;;;;;;;0.40;0.25;;;7.40;85.50;;;;;;5009969;28;20400;-72
2022/03/27 06:49:45;;;;;;;0.40;0.30;;;7.70;82.70;;;;;;5010381;28;20381;-73
2022/03/27 06:52:13;;;;;;;0.50;0.50;;;7.70;82.70;;;;;;5011598;28;20416;-75
2022/03/27 06:54:39;;;;;;;0.50;0.50;;;7.70;83.70;;;;;;5009369;28;20420;-74
2022/03/27 06:57:05;;;;;;;0.40;0.30;;;7.70;83.20;;;;;;5011170;28;20775;-73
2022/03/27 07:03:01;;;;;;;1.15;1.02;;;7.80;83.40;;;;;;5011055;28;20389;-73
2022/03/27 07:05:02;;;;;;;1.30;0.80;;;8.10;83.60;;;;;;5010122;28;20443;-74
2022/03/27 07:07:29;;;;;;;0.40;0.30;;;8.00;82.40;;;;;;5009733;28;20427;-74
2022/03/27 07:09:54;;;;;;;0.50;0.50;;;8.10;83.40;;;;;;5009998;28;20482;-74
2022/03/27 07:12:20;;;;;;;0.40;0.20;;;8.20;81.80;;;;;;5011053;28;20850;-74
2022/03/27 07:14:46;;;;;;;0.50;0.50;;;8.20;78.60;;;;;;5010651;28;20758;-74
2022/03/27 07:17:15;;;;;;;0.40;0.20;;;8.40;77.30;;;;;;5011293;28;20380;-73
2022/03/27 07:19:41;;;;;;;0.50;0.50;;;8.60;75.70;;;;;;5014840;28;20385;-73
2022/03/27 07:22:07;;;;;;;0.70;0.50;;;8.70;75.60;;;;;;5012830;28;20384;-72
2022/03/27 07:24:33;;;;;;;0.50;0.50;;;8.60;75.50;;;;;;5014852;28;20400;-73
2022/03/27 07:26:58;;;;;;;0.60;0.60;;;8.80;75.90;;;;;;5013050;28;20419;-74
2022/03/27 07:29:24;;;;;;;0.90;0.90;;;8.70;76.40;;;;;;5014830;28;20385;-72
2022/03/27 07:31:50;;;;;;;0.40;0.20;;;8.80;75.70;;;;;;5014844;28;20377;-72
2022/03/27 07:34:16;;;;;;;0.90;0.80;;;8.80;75.10;;;;;;5013893;28;20404;-71
2022/03/27 07:36:42;;;;;;;0.40;0.20;;;8.90;75.10;;;;;;5014418;28;20404;-73
2022/03/27 07:39:11;;;;;;;2.60;1.30;;;8.90;74.60;;;;;;5012531;28;20389;-73
2022/03/27 07:41:39;;;;;;;1.83;1.73;;;9.10;74.60;;;;;;5014462;28;20396;-73
2022/03/27 07:44:05;;;;;;;0.50;0.50;;;9.30;73.40;;;;;;5014237;28;20389;-74
2022/03/27 07:46:31;;;;;;;1.40;1.30;;;9.20;73.10;;;;;;5013756;28;20393;-71
2022/03/27 07:48:56;;;;;;;0.40;0.20;;;9.20;73.60;;;;;;5014432;28;20438;-72
2022/03/27 07:51:22;;;;;;;2.63;1.17;;;9.20;73.50;;;;;;5013409;28;20500;-72
2022/03/27 07:53:48;;;;;;;0.90;0.70;;;9.40;72.00;;;;;;5014422;28;20416;-72
2022/03/27 07:56:14;;;;;;;1.90;1.80;;;9.40;71.70;;;;;;5013697;28;20438;-73
2022/03/27 07:58:39;;;;;;;1.70;0.70;;;9.50;72.70;;;;;;5013920;28;20396;-73
2022/03/27 08:01:06;;;;;;;0.80;0.60;;;9.50;71.40;;;;;;5013955;28;20427;-73
2022/03/27 08:03:33;;;;;;;1.60;1.50;;;9.60;71.80;;;;;;5013417;28;20409;-73
2022/03/27 08:06:00;;;;;;;0.90;0.90;;;9.70;71.70;;;;;;5013808;28;20396;-73
2022/03/27 08:08:26;;;;;;;0.63;0.55;;;9.70;69.80;;;;;;5013153;28;20431;-74
2022/03/27 08:10:52;;;;;;;0.52;0.52;;;9.80;70.00;;;;;;5013332;28;20409;-73
2022/03/27 08:13:17;;;;;;;0.60;0.60;;;10.00;68.50;;;;;;5013979;28;20385;-73
2022/03/27 08:15:43;;;;;;;0.40;0.30;;;10.10;67.20;;;;;;5006415;28;21073;-73
2022/03/27 08:18:13;;;;;;;0.70;0.70;;;10.10;67.80;;;;;;5012797;28;20400;-74
2022/03/27 08:20:40;;;;;;;0.40;0.40;;;10.10;65.60;;;;;;5013432;28;20428;-74
2022/03/27 08:23:07;;;;;;;0.40;0.30;;;10.20;66.00;;;;;;5013716;28;20443;-72
2022/03/27 08:28:19;;;;;;;0.50;0.50;;;10.30;66.30;;;;;;5012268;28;20379;-72
2022/03/27 08:30:45;;;;;;;0.90;0.90;;;10.50;64.80;;;;;;5012357;28;20882;-71
2022/03/27 08:33:12;;;;;;;1.00;1.00;;;10.30;64.20;;;;;;5013692;28;20389;-73
2022/03/27 08:35:41;;;;;;;1.50;1.40;;;10.30;64.60;;;;;;5012691;28;20409;-75
2022/03/27 08:38:17;;;;;;;0.40;0.30;;;10.50;65.40;;;;;;5013781;28;20400;-74
2022/03/27 08:40:44;;;;;;;0.40;0.20;;;10.40;65.20;;;;;;5011459;28;20503;-75
2022/03/27 08:43:15;;;;;;;0.40;0.20;;;10.70;65.00;;;;;;5012374;28;20404;-73
2022/03/27 08:45:42;;;;;;;1.13;1.02;;;10.70;63.70;;;;;;5013295;28;20408;-75
2022/03/27 08:48:09;;;;;;;2.40;1.50;;;10.80;63.80;;;;;;5013021;28;20467;-72
2022/03/27 08:50:58;;;;;;;1.70;0.90;;;11.00;64.00;;;;;;5012953;28;20461;-72
2022/03/27 08:53:31;;;;;;;1.70;1.00;;;11.00;63.50;;;;;;5013207;28;20484;-72
2022/03/27 08:56:03;;;;;;;0.40;0.30;;;11.10;63.10;;;;;;5012560;28;20409;-73
2022/03/27 08:58:34;;;;;;;0.60;0.60;;;11.20;63.40;;;;;;5011874;28;20404;-72
2022/03/27 09:01:01;;;;;;;1.00;0.70;;;11.40;62.80;;;;;;5010315;28;20789;-73
2022/03/27 09:03:27;;;;;;;1.10;1.00;;;11.30;62.20;;;;;;5013125;28;20460;-72
2022/03/27 09:05:53;;;;;;;1.02;1.02;;;11.60;60.80;;;;;;5012100;28;20424;-74
2022/03/27 09:08:19;;;;;;;0.70;0.70;;;11.70;59.20;;;;;;5012370;28;20487;-72
2022/03/27 09:10:45;;;;;;;0.40;0.20;;;11.70;59.30;;;;;;5012834;28;20840;-72
2022/03/27 09:13:24;;;;;;;0.80;0.80;;;11.90;59.00;;;;;;5011889;28;20392;-73
2022/03/27 09:16:01;;;;;;;0.40;0.20;;;11.90;58.70;;;;;;5011413;28;20420;-73
2022/03/27 09:18:44;;;;;;;1.40;0.80;;;11.90;57.90;;;;;;5012693;28;20397;-73
2022/03/27 09:21:10;;;;;;;0.60;0.60;;;12.00;58.80;;;;;;5011844;28;20432;-71
2022/03/27 09:23:36;;;;;;;1.10;0.90;;;12.10;57.60;;;;;;5012534;28;20381;-73
2022/03/27 09:26:09;;;;;;;0.40;0.20;;;12.10;57.00;;;;;;5011430;28;20388;-74
2022/03/27 09:28:36;;;;;;;0.40;0.40;;;12.30;57.10;;;;;;5012217;28;20412;-74
2022/03/27 09:31:21;;;;;;;0.70;0.70;;;12.40;57.70;;;;;;5012596;28;20421;-73
2022/03/27 09:34:07;;;;;;;0.70;0.70;;;12.50;57.80;;;;;;5012397;28;20892;-73
2022/03/27 09:36:42;;;;;;;0.50;0.50;;;12.60;57.10;;;;;;5011737;28;20412;-72
2022/03/27 09:39:09;;;;;;;1.60;1.50;;;12.70;56.40;;;;;;5012126;28;20388;-72
2022/03/27 09:41:39;;;;;;;0.68;0.47;;;12.80;56.00;;;;;;5010029;28;20404;-73
2022/03/27 09:44:16;;;;;;;0.80;0.80;;;12.90;56.10;;;;;;5010991;28;20424;-73
2022/03/27 09:47:12;;;;;;;1.10;1.00;;;13.10;56.30;;;;;;5012668;28;20427;-72
2022/03/27 09:49:42;;;;;;;0.40;0.40;;;13.20;55.30;;;;;;5010278;28;20964;-72
2022/03/27 09:52:14;;;;;;;0.50;0.50;;;13.10;54.70;;;;;;5012015;28;20481;-70
2022/03/27 09:54:55;;;;;;;0.40;0.30;;;13.20;54.30;;;;;;5011114;28;20593;-71
2022/03/27 09:57:33;;;;;;;1.90;0.90;;;13.30;54.80;;;;;;5011934;28;20384;-71
2022/03/27 10:00:13;;;;;;;1.50;1.40;;;13.50;54.30;;;;;;5011869;28;20885;-73
2022/03/27 10:02:43;;;;;;;0.40;0.30;;;13.60;53.60;;;;;;5011444;28;20401;-72
2022/03/27 10:05:11;;;;;;;1.00;1.00;;;13.70;52.60;;;;;;5011058;28;20456;-73
2022/03/27 10:07:42;;;;;;;0.80;0.80;;;13.70;51.90;;;;;;5010900;28;20415;-72
2022/03/27 10:10:14;;;;;;;0.60;0.60;;;13.80;51.70;;;;;;5011456;28;20488;-72
2022/03/27 10:12:42;;;;;;;1.40;1.10;;;14.00;51.20;;;;;;5010973;28;20393;-73
2022/03/27 10:15:22;;;;;;;2.22;0.75;;;14.00;51.10;;;;;;5010332;28;20749;-72
2022/03/27 10:18:21;;;;;;;2.60;0.90;;;14.00;50.90;;;;;;5010443;28;20393;-71
2022/03/27 10:20:55;;;;;;;0.40;0.40;;;14.20;50.70;;;;;;4998174;28;20436;-71
2022/03/27 10:23:24;;;;;;;0.75;0.60;;;14.20;50.00;;;;;;5011640;28;20384;-70
2022/03/27 10:25:53;;;;;;;1.60;1.50;;;14.30;49.90;;;;;;5010103;28;20470;-72
2022/03/27 10:28:21;;;;;;;1.60;1.10;;;14.50;50.10;;;;;;5011269;28;20385;-72
2022/03/27 10:30:50;;;;;;;0.70;0.70;;;14.70;51.50;;;;;;5008470;28;20385;-73
2022/03/27 10:33:18;;;;;;;0.70;0.70;;;14.80;50.00;;;;;;5011210;28;20396;-72
2022/03/27 10:36:09;;;;;;;0.60;0.60;;;14.70;50.30;;;;;;5010780;28;20416;-74
2022/03/27 10:38:55;;;;;;;0.70;0.70;;;14.80;50.10;;;;;;5005933;28;20778;-73
2022/03/27 10:41:33;;;;;;;0.40;0.30;;;14.90;50.30;;;;;;5004636;28;20550;-74
2022/03/27 10:44:19;;;;;;;0.40;0.22;;;14.90;50.30;;;;;;4997138;28;20397;-73
2022/03/27 10:47:04;;;;;;;6.00;1.50;;;15.20;50.80;;;;;;4998879;28;20409;-74
2022/03/27 10:49:30;;;;;;;1.70;1.60;;;15.50;49.40;;;;;;5007061;28;20967;-74
2022/03/27 10:52:04;;;;;;;0.90;0.90;;;15.60;49.30;;;;;;5009635;28;20428;-74
2022/03/27 10:54:29;;;;;;;0.40;0.20;;;15.60;48.70;;;;;;5009237;28;20519;-73
2022/03/27 10:56:56;;;;;;;5.20;1.60;;;15.60;48.70;;;;;;5010553;28;20809;-75
2022/03/27 10:59:24;;;;;;;0.60;0.60;;;15.70;49.50;;;;;;5010336;28;20392;-71
2022/03/27 11:01:59;;;;;;;0.45;0.38;;;15.80;48.50;;;;;;5011103;28;20388;-73
2022/03/27 11:04:38;;;;;;;0.47;0.47;;;16.00;47.70;;;;;;5010683;28;20384;-74
2022/03/27 11:07:19;;;;;;;1.60;1.05;;;16.20;48.40;;;;;;5010368;28;20392;-73
2022/03/27 11:09:45;;;;;;;0.40;0.20;;;16.20;47.60;;;;;;5010648;28;20484;-72
2022/03/27 11:12:22;;;;;;;0.60;0.50;;;16.10;47.80;;;;;;5010225;28;20400;-72
2022/03/27 11:15:04;;;;;;;0.40;0.30;;;16.20;47.20;;;;;;5010912;28;20499;-72
2022/03/27 11:17:32;;;;;;;0.60;0.60;;;16.30;46.70;;;;;;5008147;28;20411;-72
2022/03/27 11:19:59;;;;;;;0.60;0.57;;;16.30;46.50;;;;;;5008146;28;20885;-71
2022/03/27 11:22:47;;;;;;;0.50;0.40;;;16.60;46.70;;;;;;5008721;28;20393;-73
2022/03/27 11:25:38;;;;;;;0.90;0.70;;;16.70;47.40;;;;;;5005297;28;20400;-74
2022/03/27 11:28:06;;;;;;;2.07;1.10;;;17.10;47.00;;;;;;5009547;28;20392;-74
2022/03/27 11:30:38;;;;;;;0.70;0.70;;;17.30;47.30;;;;;;5009795;28;20389;-71
2022/03/27 11:33:22;;;;;;;1.80;1.00;;;17.40;46.30;;;;;;5010662;28;20385;-74
2022/03/27 11:36:09;;;;;;;0.40;0.25;;;18.00;46.90;;;;;;4996646;28;20968;-72
2022/03/27 11:39:14;;;;;;;0.80;0.80;;;18.80;45.70;;;;;;5009726;28;20853;-74
2022/03/27 11:41:45;;;;;;;0.50;0.40;;;19.20;44.70;;;;;;4948977;29;20436;-73
2022/03/27 11:44:18;;;;;;;0.50;0.40;;;19.60;43.30;;;;;;4980997;28;20469;-71
2022/03/27 11:46:44;;;;;;;0.40;0.30;;;20.20;41.70;;;;;;5003346;28;20381;-74
2022/03/27 11:49:11;;;;;;;0.80;0.80;;;20.20;41.80;;;;;;5010271;28;20447;-73
2022/03/27 11:51:37;;;;;;;1.50;1.40;;;20.30;40.90;;;;;;5008267;28;20400;-74
2022/03/27 11:54:19;;;;;;;0.70;0.60;;;21.00;39.80;;;;;;5010604;28;20857;-73
2022/03/27 11:56:52;;;;;;;1.40;0.90;;;20.60;39.80;;;;;;5009542;28;20408;-74
2022/03/27 11:59:18;;;;;;;1.20;1.10;;;21.50;41.50;;;;;;5009768;28;20397;-74
2022/03/27 12:01:49;;;;;;;0.90;0.90;;;22.00;39.50;;;;;;5009174;28;20388;-75
2022/03/27 12:04:16;;;;;;;0.50;0.40;;;22.20;38.50;;;;;;5007300;28;20454;-75
2022/03/27 12:06:42;;;;;;;0.40;0.20;;;20.70;38.30;;;;;;5012592;28;20774;-74
2022/03/27 12:09:08;;;;;;;0.88;0.73;;;21.50;39.50;;;;;;5011565;28;20397;-73
2022/03/27 12:11:34;;;;;;;1.37;1.27;;;21.70;38.60;;;;;;5009764;28;20404;-73
2022/03/27 12:14:08;;;;;;;0.40;0.30;;;21.00;39.90;;;;;;5013509;28;20377;-74
2022/03/27 12:16:33;;;;;;;0.40;0.30;;;20.30;41.70;;;;;;5002425;28;20424;-75
2022/03/27 12:19:12;;;;;;;0.40;0.20;;;21.50;41.70;;;;;;5010928;28;20388;-73
2022/03/27 12:21:46;;;;;;;0.80;0.70;;;21.10;40.40;;;;;;5013280;28;20460;-74
2022/03/27 12:24:12;;;;;;;3.92;1.50;;;21.30;40.90;;;;;;5013265;28;20377;-73
2022/03/27 12:32:17;;;;;;;1.00;0.90;;;20.80;39.90;;;;;;5013463;28;20379;-74
2022/03/27 12:35:01;;;;;;;0.40;0.30;;;22.00;40.10;;;;;;5013586;28;20920;-72
2022/03/27 12:37:30;;;;;;;0.70;0.50;;;21.90;38.20;;;;;;5013917;28;20397;-73
2022/03/27 12:39:56;;;;;;;4.70;1.30;;;21.80;40.00;;;;;;5012676;28;20381;-73
2022/03/27 12:42:49;;;;;;;0.70;0.70;;;21.60;39.90;;;;;;5013592;28;20388;-74
2022/03/27 12:45:27;;;;;;;0.80;0.80;;;21.90;40.20;;;;;;5010591;28;20408;-73
2022/03/27 12:47:58;;;;;;;1.70;1.60;;;21.80;39.80;;;;;;5012665;28;20416;-75
2022/03/27 12:50:29;;;;;;;2.00;1.77;;;21.30;40.70;;;;;;5013164;28;20400;-73
2022/03/27 12:52:56;;;;;;;3.78;1.13;;;21.20;40.40;;;;;;5012788;28;20886;-77
2022/03/27 12:55:38;;;;;;;8.60;0.70;;;21.70;41.60;;;;;;5013270;28;20524;-76
2022/03/27 12:58:05;;;;;;;0.80;0.80;;;21.20;40.40;;;;;;5012821;28;20425;-77
2022/03/27 13:00:32;;;;;;;2.20;1.07;;;22.10;41.60;;;;;;5013259;28;20381;-75
2022/03/27 13:03:10;;;;;;;1.10;1.10;;;22.20;41.50;;;;;;5012764;28;20381;-78
2022/03/27 13:05:37;;;;;;;1.52;1.17;;;22.40;40.10;;;;;;5011611;28;20385;-73
2022/03/27 13:08:03;;;;;;;1.30;1.20;;;22.10;38.80;;;;;;5011163;28;20495;-75
2022/03/27 13:10:29;;;;;;;0.40;0.30;;;21.90;38.60;;;;;;5012179;28;20558;-75
2022/03/27 13:13:07;;;;;;;1.70;1.40;;;22.50;40.50;;;;;;5012950;28;20476;-75